sensor_id;sensor_type;location;lat;lon;timestamp;pressure;altitude;pressure_sealevel;temperature;humidity
55410;BME280;41279;43.546;16.426;2022-09-17T00:02:20;117236.00;;;-146.77;100.00
55410;BME280;41279;43.546;16.426;2022-09-17T00:04:47;117236.00;;;-146.77;100.00
55410;BME280;41279;43.546;16.426;2022-09-17T00:07:13;117236.00;;;-146.77;100.00
55410;BME280;41279;43.546;16.426;2022-09-17T00:09:39;117236.00;;;-146.77;100.00
55410;BME280;41279;43.546;16.426;2022-09-17T00:12:04;117236.00;;;-146.77;100.00
55410;BME280;41279;43.546;16.426;2022-09-17T00:14:29;117236.00;;;-146.77;100.00
55410;BME280;41279;43.546;16.426;2022-09-17T00:16:55;117236.00;;;-146.77;100.00
55410;BME280;41279;43.546;16.426;2022-09-17T00:19:21;117236.00;;;-146.77;100.00
55410;BME280;41279;43.546;16.426;2022-09-17T00:21:50;117236.00;;;-146.77;100.00
55410;BME280;41279;43.546;16.426;2022-09-17T00:24:17;117236.00;;;-146.77;100.00
55410;BME280;41279;43.546;16.426;2022-09-17T00:26:43;117236.00;;;-146.77;100.00
55410;BME280;41279;43.546;16.426;2022-09-17T00:29:09;117236.00;;;-146.77;100.00
55410;BME280;41279;43.546;16.426;2022-09-17T00:31:36;117236.00;;;-146.77;100.00
55410;BME280;41279;43.546;16.426;2022-09-17T00:34:03;117236.00;;;-146.77;100.00
55410;BME280;41279;43.546;16.426;2022-09-17T00:36:29;117236.00;;;-146.77;100.00
55410;BME280;41279;43.546;16.426;2022-09-17T00:38:57;117236.00;;;-146.77;100.00
55410;BME280;41279;43.546;16.426;2022-09-17T00:41:25;117236.00;;;-146.77;100.00
55410;BME280;41279;43.546;16.426;2022-09-17T00:43:53;117236.00;;;-146.77;100.00
55410;BME280;41279;43.546;16.426;2022-09-17T00:46:42;117236.00;;;-146.77;100.00
55410;BME280;41279;43.546;16.426;2022-09-17T00:49:18;117236.00;;;-146.77;100.00
55410;BME280;41279;43.546;16.426;2022-09-17T00:51:50;117236.00;;;-146.77;100.00
55410;BME280;41279;43.546;16.426;2022-09-17T00:54:19;117236.00;;;-146.77;100.00
55410;BME280;41279;43.546;16.426;2022-09-17T00:56:45;117236.00;;;-146.77;100.00
55410;BME280;41279;43.546;16.426;2022-09-17T00:59:11;117236.00;;;-146.77;100.00
55410;BME280;41279;43.546;16.426;2022-09-17T01:01:38;117236.00;;;-146.77;100.00
55410;BME280;41279;43.546;16.426;2022-09-17T01:04:03;117236.00;;;-146.77;100.00
55410;BME280;41279;43.546;16.426;2022-09-17T01:17:29;117236.00;;;-146.77;100.00
55410;BME280;41279;43.546;16.426;2022-09-17T01:22:32;117236.00;;;-146.77;100.00
55410;BME280;41279;43.546;16.426;2022-09-17T01:25:26;117236.00;;;-146.77;100.00
55410;BME280;41279;43.546;16.426;2022-09-17T01:36:19;117236.00;;;-146.77;100.00
55410;BME280;41279;43.546;16.426;2022-09-17T01:39:04;117236.00;;;-146.77;100.00
55410;BME280;41279;43.546;16.426;2022-09-17T01:44:27;117236.00;;;-146.77;100.00
55410;BME280;41279;43.546;16.426;2022-09-17T01:47:22;117236.00;;;-146.77;100.00
55410;BME280;41279;43.546;16.426;2022-09-17T01:49:53;117236.00;;;-146.77;100.00
55410;BME280;41279;43.546;16.426;2022-09-17T01:52:22;117236.00;;;-146.77;100.00
55410;BME280;41279;43.546;16.426;2022-09-17T01:54:52;117236.00;;;-146.77;100.00
55410;BME280;41279;43.546;16.426;2022-09-17T01:57:25;117236.00;;;-146.77;100.00
55410;BME280;41279;43.546;16.426;2022-09-17T02:00:04;117236.00;;;-146.77;100.00
55410;BME280;41279;43.546;16.426;2022-09-17T02:02:36;117236.00;;;-146.77;100.00
55410;BME280;41279;43.546;16.426;2022-09-17T02:05:10;117236.00;;;-146.77;100.00
55410;BME280;41279;43.546;16.426;2022-09-17T02:07:55;117236.00;;;-146.77;100.00
55410;BME280;41279;43.546;16.426;2022-09-17T02:10:32;117236.00;;;-146.77;100.00
55410;BME280;41279;43.546;16.426;2022-09-17T02:13:09;117236.00;;;-146.77;100.00
55410;BME280;41279;43.546;16.426;2022-09-17T02:15:41;117236.00;;;-146.77;100.00
55410;BME280;41279;43.546;16.426;2022-09-17T02:20:47;117236.00;;;-146.77;100.00
55410;BME280;41279;43.546;16.426;2022-09-17T02:23:19;117236.00;;;-146.77;100.00
55410;BME280;41279;43.546;16.426;2022-09-17T02:25:51;117236.00;;;-146.77;100.00
55410;BME280;41279;43.546;16.426;2022-09-17T02:28:25;117236.00;;;-146.77;100.00
55410;BME280;41279;43.546;16.426;2022-09-17T02:30:54;117236.00;;;-146.77;100.00
55410;BME280;41279;43.546;16.426;2022-09-17T02:33:20;117236.00;;;-146.77;100.00
55410;BME280;41279;43.546;16.426;2022-09-17T02:35:47;117236.00;;;-146.77;100.00
55410;BME280;41279;43.546;16.426;2022-09-17T02:38:12;117236.00;;;-146.77;100.00
55410;BME280;41279;43.546;16.426;2022-09-17T02:40:50;117236.00;;;-146.77;100.00
55410;BME280;41279;43.546;16.426;2022-09-17T02:43:34;117236.00;;;-146.77;100.00
55410;BME280;41279;43.546;16.426;2022-09-17T02:49:01;117236.00;;;-146.77;100.00
55410;BME280;41279;43.546;16.426;2022-09-17T02:52:08;117236.00;;;-146.77;100.00
55410;BME280;41279;43.546;16.426;2022-09-17T02:54:39;117236.00;;;-146.77;100.00
55410;BME280;41279;43.546;16.426;2022-09-17T02:57:23;117236.00;;;-146.77;100.00
55410;BME280;41279;43.546;16.426;2022-09-17T03:00:13;117236.00;;;-146.77;100.00
55410;BME280;41279;43.546;16.426;2022-09-17T03:03:02;117236.00;;;-146.77;100.00
55410;BME280;41279;43.546;16.426;2022-09-17T03:05:30;117236.00;;;-146.77;100.00
55410;BME280;41279;43.546;16.426;2022-09-17T03:07:58;117236.00;;;-146.77;100.00
55410;BME280;41279;43.546;16.426;2022-09-17T03:10:23;117236.00;;;-146.77;100.00
55410;BME280;41279;43.546;16.426;2022-09-17T03:12:50;117236.00;;;-146.77;100.00
55410;BME280;41279;43.546;16.426;2022-09-17T03:15:17;117236.00;;;-146.77;100.00
55410;BME280;41279;43.546;16.426;2022-09-17T03:17:43;117236.00;;;-146.77;100.00
55410;BME280;41279;43.546;16.426;2022-09-17T03:20:08;117236.00;;;-146.77;100.00
55410;BME280;41279;43.546;16.426;2022-09-17T03:22:34;117236.00;;;-146.77;100.00
55410;BME280;41279;43.546;16.426;2022-09-17T03:24:59;117236.00;;;-146.77;100.00
55410;BME280;41279;43.546;16.426;2022-09-17T03:27:25;117236.00;;;-146.77;100.00
55410;BME280;41279;43.546;16.426;2022-09-17T03:29:50;117236.00;;;-146.77;100.00
55410;BME280;41279;43.546;16.426;2022-09-17T03:32:16;117236.00;;;-146.77;100.00
55410;BME280;41279;43.546;16.426;2022-09-17T03:34:41;117236.00;;;-146.77;100.00
55410;BME280;41279;43.546;16.426;2022-09-17T03:37:07;117236.00;;;-146.77;100.00
55410;BME280;41279;43.546;16.426;2022-09-17T03:39:32;117236.00;;;-146.77;100.00
55410;BME280;41279;43.546;16.426;2022-09-17T03:41:57;117236.00;;;-146.77;100.00
55410;BME280;41279;43.546;16.426;2022-09-17T03:44:23;117236.00;;;-146.77;100.00
55410;BME280;41279;43.546;16.426;2022-09-17T03:46:49;117236.00;;;-146.77;100.00
55410;BME280;41279;43.546;16.426;2022-09-17T03:49:14;117236.00;;;-146.77;100.00
55410;BME280;41279;43.546;16.426;2022-09-17T03:51:40;117236.00;;;-146.77;100.00
55410;BME280;41279;43.546;16.426;2022-09-17T03:54:05;117236.00;;;-146.77;100.00
55410;BME280;41279;43.546;16.426;2022-09-17T03:56:31;117236.00;;;-146.77;100.00
55410;BME280;41279;43.546;16.426;2022-09-17T03:59:00;117236.00;;;-146.77;100.00
55410;BME280;41279;43.546;16.426;2022-09-17T04:01:27;117236.00;;;-146.77;100.00
55410;BME280;41279;43.546;16.426;2022-09-17T04:03:52;117236.00;;;-146.77;100.00
55410;BME280;41279;43.546;16.426;2022-09-17T04:06:18;117236.00;;;-146.77;100.00
55410;BME280;41279;43.546;16.426;2022-09-17T04:08:43;117236.00;;;-146.77;100.00
55410;BME280;41279;43.546;16.426;2022-09-17T04:11:09;117236.00;;;-146.77;100.00
55410;BME280;41279;43.546;16.426;2022-09-17T04:13:35;117236.00;;;-146.77;100.00
55410;BME280;41279;43.546;16.426;2022-09-17T04:16:01;117236.00;;;-146.77;100.00
55410;BME280;41279;43.546;16.426;2022-09-17T04:18:26;117236.00;;;-146.77;100.00
55410;BME280;41279;43.546;16.426;2022-09-17T04:20:52;117236.00;;;-146.77;100.00
55410;BME280;41279;43.546;16.426;2022-09-17T04:23:18;117236.00;;;-146.77;100.00
55410;BME280;41279;43.546;16.426;2022-09-17T04:25:43;117236.00;;;-146.77;100.00
55410;BME280;41279;43.546;16.426;2022-09-17T04:28:08;117236.00;;;-146.77;100.00
55410;BME280;41279;43.546;16.426;2022-09-17T04:30:34;117236.00;;;-146.77;100.00
55410;BME280;41279;43.546;16.426;2022-09-17T04:32:59;117236.00;;;-146.77;100.00
55410;BME280;41279;43.546;16.426;2022-09-17T04:35:25;117236.00;;;-146.77;100.00
55410;BME280;41279;43.546;16.426;2022-09-17T04:37:54;117236.00;;;-146.77;100.00
55410;BME280;41279;43.546;16.426;2022-09-17T04:40:21;117236.00;;;-146.77;100.00
55410;BME280;41279;43.546;16.426;2022-09-17T04:42:46;117233.97;;;-146.77;100.00
55410;BME280;41279;43.546;16.426;2022-09-17T04:45:12;117233.97;;;-146.77;100.00
55410;BME280;41279;43.546;16.426;2022-09-17T04:47:38;116973.56;;;-146.77;100.00
55410;BME280;41279;43.546;16.426;2022-09-17T04:50:04;117236.00;;;-146.77;100.00
55410;BME280;41279;43.546;16.426;2022-09-17T04:52:29;117236.00;;;-146.77;100.00
55410;BME280;41279;43.546;16.426;2022-09-17T04:54:55;117236.00;;;-146.77;100.00
55410;BME280;41279;43.546;16.426;2022-09-17T04:57:20;117236.00;;;-146.77;100.00
55410;BME280;41279;43.546;16.426;2022-09-17T04:59:47;117236.00;;;-146.77;100.00
55410;BME280;41279;43.546;16.426;2022-09-17T05:02:13;117236.00;;;-146.77;100.00
55410;BME280;41279;43.546;16.426;2022-09-17T05:04:38;117236.00;;;-146.77;100.00
55410;BME280;41279;43.546;16.426;2022-09-17T05:07:03;117236.00;;;-146.77;100.00
55410;BME280;41279;43.546;16.426;2022-09-17T05:09:29;117236.00;;;-146.77;100.00
55410;BME280;41279;43.546;16.426;2022-09-17T05:12:06;117236.00;;;-146.77;100.00
55410;BME280;41279;43.546;16.426;2022-09-17T05:14:38;117233.97;;;-146.77;100.00
55410;BME280;41279;43.546;16.426;2022-09-17T05:17:03;114370.31;;;-146.77;100.00
55410;BME280;41279;43.546;16.426;2022-09-17T05:19:29;113589.66;;;-146.77;100.00
55410;BME280;41279;43.546;16.426;2022-09-17T05:21:55;111768.75;;;-146.77;100.00
55410;BME280;41279;43.546;16.426;2022-09-17T05:24:20;110988.59;;;-146.77;100.00
55410;BME280;41279;43.546;16.426;2022-09-17T05:26:45;109948.63;;;-146.77;100.00
55410;BME280;41279;43.546;16.426;2022-09-17T05:29:11;112549.03;;;-146.77;100.00
55410;BME280;41279;43.546;16.426;2022-09-17T05:31:36;113589.66;;;-146.77;100.00
55410;BME280;41279;43.546;16.426;2022-09-17T05:34:01;106570.56;;;-146.77;100.00
55410;BME280;41279;43.546;16.426;2022-09-17T05:36:27;101638.44;;;-146.77;100.00
55410;BME280;41279;43.546;16.426;2022-09-17T05:38:53;106570.56;;;-146.77;100.00
55410;BME280;41279;43.546;16.426;2022-09-17T05:41:18;111248.63;;;-146.77;100.00
55410;BME280;41279;43.546;16.426;2022-09-17T05:43:43;116973.56;;;-146.77;100.00
55410;BME280;41279;43.546;16.426;2022-09-17T05:46:09;116452.78;;;-146.77;100.00
55410;BME280;41279;43.546;16.426;2022-09-17T05:48:35;117236.00;;;-146.77;100.00
55410;BME280;41279;43.546;16.426;2022-09-17T05:51:00;117236.00;;;-146.77;100.00
55410;BME280;41279;43.546;16.426;2022-09-17T05:53:26;117236.00;;;-146.77;100.00
55410;BME280;41279;43.546;16.426;2022-09-17T05:55:57;117236.00;;;-146.77;100.00
55410;BME280;41279;43.546;16.426;2022-09-17T05:58:23;117236.00;;;-146.77;100.00
55410;BME280;41279;43.546;16.426;2022-09-17T06:00:49;117233.97;;;-146.77;100.00
55410;BME280;41279;43.546;16.426;2022-09-17T06:03:17;116713.16;;;-146.77;100.00
55410;BME280;41279;43.546;16.426;2022-09-17T06:05:44;117236.00;;;-146.77;100.00
55410;BME280;41279;43.546;16.426;2022-09-17T06:08:16;113849.88;;;-146.77;100.00
55410;BME280;41279;43.546;16.426;2022-09-17T06:10:41;112549.03;;;-146.77;100.00
55410;BME280;41279;43.546;16.426;2022-09-17T06:13:06;112549.03;;;-146.77;100.00
55410;BME280;41279;43.546;16.426;2022-09-17T06:15:32;110468.56;;;-146.77;100.00
55410;BME280;41279;43.546;16.426;2022-09-17T06:17:58;110208.59;;;-146.77;100.00
55410;BME280;41279;43.546;16.426;2022-09-17T06:20:23;109428.75;;;-146.77;100.00
55410;BME280;41279;43.546;16.426;2022-09-17T06:22:57;109948.63;;;-146.77;100.00
55410;BME280;41279;43.546;16.426;2022-09-17T06:25:22;109948.63;;;-146.77;100.00
55410;BME280;41279;43.546;16.426;2022-09-17T06:27:48;107869.47;;;-146.77;100.00
55410;BME280;41279;43.546;16.426;2022-09-17T06:30:13;109948.63;;;-146.77;100.00
55410;BME280;41279;43.546;16.426;2022-09-17T06:32:39;111768.75;;;-146.77;100.00
55410;BME280;41279;43.546;16.426;2022-09-17T06:35:12;114110.09;;;-146.77;100.00
55410;BME280;41279;43.546;16.426;2022-09-17T06:37:37;110988.59;;;-146.77;100.00
55410;BME280;41279;43.546;16.426;2022-09-17T06:40:05;110988.59;;;-146.77;100.00
55410;BME280;41279;43.546;16.426;2022-09-17T06:42:31;111768.75;;;-146.77;100.00
55410;BME280;41279;43.546;16.426;2022-09-17T06:44:56;113069.31;;;-146.77;100.00
55410;BME280;41279;43.546;16.426;2022-09-17T06:47:25;114110.09;;;-146.77;100.00
55410;BME280;41279;43.546;16.426;2022-09-17T06:49:50;115411.41;;;-146.77;100.00
55410;BME280;41279;43.546;16.426;2022-09-17T06:52:17;112809.19;;;-146.77;100.00
55410;BME280;41279;43.546;16.426;2022-09-17T06:54:42;108908.91;;;-146.77;100.00
55410;BME280;41279;43.546;16.426;2022-09-17T06:57:08;109948.63;;;-146.77;100.00
55410;BME280;41279;43.546;16.426;2022-09-17T06:59:33;110728.56;;;-146.77;100.00
55410;BME280;41279;43.546;16.426;2022-09-17T07:01:58;108649.03;;;-146.77;100.00
55410;BME280;41279;43.546;16.426;2022-09-17T07:04:24;102676.28;;;-146.77;100.00
55410;BME280;41279;43.546;16.426;2022-09-17T07:06:49;104233.53;;;-146.77;100.00
55410;BME280;41279;43.546;16.426;2022-09-17T07:09:14;100082.16;;;-146.77;100.00
55410;BME280;41279;43.546;16.426;2022-09-17T07:11:40;97230.53;;;-146.77;100.00
55410;BME280;41279;43.546;16.426;2022-09-17T07:14:05;99822.84;;;-146.77;100.00
55410;BME280;41279;43.546;16.426;2022-09-17T07:16:33;95157.91;;;-146.77;100.00
55410;BME280;41279;43.546;16.426;2022-09-17T07:19:01;90498.34;;;-146.77;100.00
55410;BME280;41279;43.546;16.426;2022-09-17T07:21:27;83519.09;;;-146.77;100.00
55410;BME280;41279;43.546;16.426;2022-09-17T07:23:53;81969.81;;;-146.77;100.00
55410;BME280;41279;43.546;16.426;2022-09-17T07:26:18;84552.31;;;-146.77;100.00
55410;BME280;41279;43.546;16.426;2022-09-17T07:28:46;87912.03;;;-146.77;100.00
55410;BME280;41279;43.546;16.426;2022-09-17T07:31:12;92050.94;;;-146.77;100.00
55410;BME280;41279;43.546;16.426;2022-09-17T07:33:38;84293.97;;;-146.77;100.00
55410;BME280;41279;43.546;16.426;2022-09-17T07:36:10;90239.66;;;-146.77;100.00
55410;BME280;41279;43.546;16.426;2022-09-17T07:38:35;92309.75;;;-146.77;100.00
55410;BME280;41279;43.546;16.426;2022-09-17T07:41:06;85585.78;;;-146.77;100.00
55410;BME280;41279;43.546;16.426;2022-09-17T07:43:34;82744.38;;;-146.77;100.00
55410;BME280;41279;43.546;16.426;2022-09-17T07:46:01;89205.00;;;-146.77;100.00
55410;BME280;41279;43.546;16.426;2022-09-17T07:48:27;93604.13;;;-146.77;100.00
55410;BME280;41279;43.546;16.426;2022-09-17T07:50:53;90757.06;;;-146.77;100.00
55410;BME280;41279;43.546;16.426;2022-09-17T07:53:19;96971.41;;;-146.77;100.00
55410;BME280;41279;43.546;16.426;2022-09-17T07:55:52;97489.69;;;-146.77;100.00
55410;BME280;41279;43.546;16.426;2022-09-17T07:58:18;99304.25;;;-146.77;100.00
55410;BME280;41279;43.546;16.426;2022-09-17T08:00:43;99044.97;;;-146.77;100.00
55410;BME280;41279;43.546;16.426;2022-09-17T08:03:09;93086.34;;;-146.77;100.00
55410;BME280;41279;43.546;16.426;2022-09-17T08:05:34;98267.25;;;-146.77;100.00
55410;BME280;41279;43.546;16.426;2022-09-17T08:08:00;93604.13;;;-146.77;100.00
55410;BME280;41279;43.546;16.426;2022-09-17T08:10:25;94122.00;;;-146.77;100.00
55410;BME280;41279;43.546;16.426;2022-09-17T08:12:55;87136.47;;;-146.77;100.00
55410;BME280;41279;43.546;16.426;2022-09-17T08:15:21;81711.66;;;-146.77;100.00
55410;BME280;41279;43.546;16.426;2022-09-17T08:17:47;83260.84;;;-146.77;100.00
55410;BME280;41279;43.546;16.426;2022-09-17T08:20:14;87394.97;;;-146.77;100.00
55410;BME280;41279;43.546;16.426;2022-09-17T08:22:40;81453.50;;;-146.77;100.00
55410;BME280;41279;43.546;16.426;2022-09-17T08:25:07;80937.28;;;-146.77;100.00
55410;BME280;41279;43.546;16.426;2022-09-17T08:27:33;84035.69;;;-146.77;100.00
55410;BME280;41279;43.546;16.426;2022-09-17T08:29:58;80421.09;;;-146.77;100.00
55410;BME280;41279;43.546;16.426;2022-09-17T08:32:24;80163.03;;;-146.77;100.00
55410;BME280;41279;43.546;16.426;2022-09-17T08:34:50;80937.28;;;-146.77;100.00
55410;BME280;41279;43.546;16.426;2022-09-17T08:37:19;70775.34;;;-146.77;100.00
55410;BME280;41279;43.546;16.426;2022-09-17T08:39:45;81453.50;;;-146.77;100.00
55410;BME280;41279;43.546;16.426;2022-09-17T08:44:50;77583.34;;;-146.77;100.00
55410;BME280;41279;43.546;16.426;2022-09-17T08:47:25;74681.19;;;-146.77;100.00
55410;BME280;41279;43.546;16.426;2022-09-17T08:49:55;74453.69;;;-146.77;100.00
55410;BME280;41279;43.546;16.426;2022-09-17T08:52:45;69160.59;;;-146.77;100.00
55410;BME280;41279;43.546;16.426;2022-09-17T09:00:52;64440.75;;;-146.77;100.00
55410;BME280;41279;43.546;16.426;2022-09-17T09:06:14;64496.97;;;-146.77;100.00
55410;BME280;41279;43.546;16.426;2022-09-17T09:08:44;63071.44;;;-146.77;100.00
55410;BME280;41279;43.546;16.426;2022-09-17T09:11:17;66706.53;;;-146.77;100.00
55410;BME280;41279;43.546;16.426;2022-09-17T09:13:51;63790.19;;;-146.77;100.00
55410;BME280;41279;43.546;16.426;2022-09-17T09:16:21;64466.84;;;-146.77;100.00
55410;BME280;41279;43.546;16.426;2022-09-17T09:18:51;64896.63;;;-146.77;100.00
55410;BME280;41279;43.546;16.426;2022-09-17T09:21:25;69086.22;;;-146.77;100.00
55410;BME280;41279;43.546;16.426;2022-09-17T09:23:54;63683.75;;;-146.77;100.00
55410;BME280;41279;43.546;16.426;2022-09-17T09:26:42;67261.13;;;-146.77;100.00
55410;BME280;41279;43.546;16.426;2022-09-17T09:34:18;68416.78;;;-146.77;100.00
55410;BME280;41279;43.546;16.426;2022-09-17T09:36:44;65925.03;;;-146.77;100.00
55410;BME280;41279;43.546;16.426;2022-09-17T09:39:18;66284.63;;;-146.77;100.00
55410;BME280;41279;43.546;16.426;2022-09-17T09:42:10;68607.75;;;-146.77;100.00
55410;BME280;41279;43.546;16.426;2022-09-17T09:44:39;68119.28;;;-146.77;100.00
55410;BME280;41279;43.546;16.426;2022-09-17T09:55:19;70994.59;;;-146.77;100.00
55410;BME280;41279;43.546;16.426;2022-09-17T09:57:55;73258.06;;;-146.77;100.00
55410;BME280;41279;43.546;16.426;2022-09-17T10:00:35;73328.50;;;-146.77;100.00
55410;BME280;41279;43.546;16.426;2022-09-17T10:05:34;78004.47;;;-146.77;100.00
55410;BME280;41279;43.546;16.426;2022-09-17T10:08:10;76823.88;;;-146.77;100.00
55410;BME280;41279;43.546;16.426;2022-09-17T10:10:52;75240.91;;;-146.77;100.00
55410;BME280;41279;43.546;16.426;2022-09-17T10:13:19;77172.38;;;-146.77;100.00
55410;BME280;41279;43.546;16.426;2022-09-17T10:15:44;78308.72;;;-146.77;100.00
55410;BME280;41279;43.546;16.426;2022-09-17T10:18:21;78615.03;;;-146.77;100.00
55410;BME280;41279;43.546;16.426;2022-09-17T10:20:58;87394.97;;;-146.77;100.00
55410;BME280;41279;43.546;16.426;2022-09-17T10:23:26;80679.19;;;-146.77;100.00
55410;BME280;41279;43.546;16.426;2022-09-17T10:25:53;80679.19;;;-146.77;100.00
55410;BME280;41279;43.546;16.426;2022-09-17T10:28:30;78248.28;;;-146.77;100.00
55410;BME280;41279;43.546;16.426;2022-09-17T10:30:58;80163.03;;;-146.77;100.00
55410;BME280;41279;43.546;16.426;2022-09-17T10:33:29;78357.09;;;-146.77;100.00
55410;BME280;41279;43.546;16.426;2022-09-17T10:38:28;72014.50;;;-146.77;100.00
55410;BME280;41279;43.546;16.426;2022-09-17T10:41:08;71044.88;;;-146.77;100.00
55410;BME280;41279;43.546;16.426;2022-09-17T10:43:34;70779.38;;;-146.77;100.00
55410;BME280;41279;43.546;16.426;2022-09-17T10:46:00;66270.56;;;-146.77;100.00
55410;BME280;41279;43.546;16.426;2022-09-17T10:48:32;62569.63;;;-146.77;100.00
55410;BME280;41279;43.546;16.426;2022-09-17T10:50:59;64352.41;;;-146.77;100.00
55410;BME280;41279;43.546;16.426;2022-09-17T10:53:27;65999.34;;;-146.77;100.00
55410;BME280;41279;43.546;16.426;2022-09-17T10:56:19;63203.94;;;-146.77;100.00
55410;BME280;41279;43.546;16.426;2022-09-17T11:01:47;63752.03;;;-146.77;100.00
55410;BME280;41279;43.546;16.426;2022-09-17T11:04:24;64685.75;;;-146.77;100.00
55410;BME280;41279;43.546;16.426;2022-09-17T11:10:05;63685.78;;;-146.77;100.00
55410;BME280;41279;43.546;16.426;2022-09-17T11:13:03;66901.44;;;-146.77;100.00
55410;BME280;41279;43.546;16.426;2022-09-17T11:18:30;68020.81;;;-146.77;100.00
55410;BME280;41279;43.546;16.426;2022-09-17T11:39:44;62617.81;;;-146.77;100.00
55410;BME280;41279;43.546;16.426;2022-09-17T11:42:19;60219.94;;;-146.77;100.00
55410;BME280;41279;43.546;16.426;2022-09-17T11:44:58;59487.81;;;-146.77;100.00
55410;BME280;41279;43.546;16.426;2022-09-17T11:47:35;61813.00;;;-146.77;100.00
55410;BME280;41279;43.546;16.426;2022-09-17T11:50:24;64274.06;;;-146.77;100.00
55410;BME280;41279;43.546;16.426;2022-09-17T11:53:03;64876.53;;;-146.77;100.00
55410;BME280;41279;43.546;16.426;2022-09-17T11:55:41;65111.50;;;-146.77;100.00
55410;BME280;41279;43.546;16.426;2022-09-17T11:58:26;64051.19;;;-146.77;100.00
55410;BME280;41279;43.546;16.426;2022-09-17T12:01:00;61636.41;;;-146.77;100.00
55410;BME280;41279;43.546;16.426;2022-09-17T12:03:31;62437.16;;;-146.77;100.00
55410;BME280;41279;43.546;16.426;2022-09-17T12:06:05;63300.31;;;-146.77;100.00
55410;BME280;41279;43.546;16.426;2022-09-17T12:09:24;64754.03;;;-146.77;100.00
55410;BME280;41279;43.546;16.426;2022-09-17T12:11:32;67170.72;;;-146.77;100.00
55410;BME280;41279;43.546;16.426;2022-09-17T12:14:21;65442.91;;;-146.77;100.00
55410;BME280;41279;43.546;16.426;2022-09-17T12:16:52;60835.81;;;-146.77;100.00
55410;BME280;41279;43.546;16.426;2022-09-17T12:19:34;64243.97;;;-146.77;100.00
55410;BME280;41279;43.546;16.426;2022-09-17T12:22:07;67036.06;;;-146.77;100.00
55410;BME280;41279;43.546;16.426;2022-09-17T12:24:34;70821.59;;;-146.77;100.00
55410;BME280;41279;43.546;16.426;2022-09-17T12:27:14;72690.56;;;-146.77;100.00
55410;BME280;41279;43.546;16.426;2022-09-17T12:40:59;76767.47;;;-146.77;100.00
55410;BME280;41279;43.546;16.426;2022-09-17T12:43:59;78615.03;;;-146.77;100.00
55410;BME280;41279;43.546;16.426;2022-09-17T12:54:44;80679.19;;;-146.77;100.00
55410;BME280;41279;43.546;16.426;2022-09-17T12:59:48;80421.09;;;-146.77;100.00
55410;BME280;41279;43.546;16.426;2022-09-17T13:02:19;83002.59;;;-146.77;100.00
55410;BME280;41279;43.546;16.426;2022-09-17T13:18:41;73105.09;;;-146.77;100.00
55410;BME280;41279;43.546;16.426;2022-09-17T13:21:13;73348.63;;;-146.77;100.00
55410;BME280;41279;43.546;16.426;2022-09-17T13:23:44;73900.13;;;-146.77;100.00
55410;BME280;41279;43.546;16.426;2022-09-17T13:26:11;71883.72;;;-146.77;100.00
55410;BME280;41279;43.546;16.426;2022-09-17T13:28:50;75428.19;;;-146.77;100.00
55410;BME280;41279;43.546;16.426;2022-09-17T13:31:21;68342.41;;;-146.77;100.00
55410;BME280;41279;43.546;16.426;2022-09-17T13:33:57;64934.78;;;-146.77;100.00
55410;BME280;41279;43.546;16.426;2022-09-17T13:39:06;64948.84;;;-146.77;100.00
55410;BME280;41279;43.546;16.426;2022-09-17T13:41:36;63924.69;;;-146.77;100.00
55410;BME280;41279;43.546;16.426;2022-09-17T13:44:07;63940.75;;;-146.77;100.00
55410;BME280;41279;43.546;16.426;2022-09-17T13:46:34;66419.22;;;-146.77;100.00
55410;BME280;41279;43.546;16.426;2022-09-17T13:49:12;64972.94;;;-146.77;100.00
55410;BME280;41279;43.546;16.426;2022-09-17T13:51:44;74111.47;;;-146.77;100.00
55410;BME280;41279;43.546;16.426;2022-09-17T13:54:10;74258.44;;;-146.77;100.00
55410;BME280;41279;43.546;16.426;2022-09-17T13:56:48;76753.38;;;-146.77;100.00
55410;BME280;41279;43.546;16.426;2022-09-17T13:59:24;76809.78;;;-146.77;100.00
55410;BME280;41279;43.546;16.426;2022-09-17T14:04:50;77583.34;;;-146.77;100.00
55410;BME280;41279;43.546;16.426;2022-09-17T14:20:55;85069.00;;;-146.77;100.00
55410;BME280;41279;43.546;16.426;2022-09-17T14:23:31;83260.84;;;-146.77;100.00
55410;BME280;41279;43.546;16.426;2022-09-17T14:25:58;77841.25;;;-146.77;100.00
55410;BME280;41279;43.546;16.426;2022-09-17T14:30:52;63717.91;;;-146.77;100.00
55410;BME280;41279;43.546;16.426;2022-09-17T14:33:23;59714.47;;;-146.77;100.00
55410;BME280;41279;43.546;16.426;2022-09-17T14:35:54;58146.28;;;-146.77;100.00
55410;BME280;41279;43.546;16.426;2022-09-17T14:38:26;58485.13;;;-146.77;100.00
55410;BME280;41279;43.546;16.426;2022-09-17T14:41:06;58539.28;;;-146.77;100.00
55410;BME280;41279;43.546;16.426;2022-09-17T14:46:33;58475.13;;;-146.77;100.00
55410;BME280;41279;43.546;16.426;2022-09-17T14:49:20;57506.75;;;-146.77;100.00
55410;BME280;41279;43.546;16.426;2022-09-17T14:51:47;60474.69;;;-146.77;100.00
55410;BME280;41279;43.546;16.426;2022-09-17T14:56:52;62039.78;;;-146.77;100.00
55410;BME280;41279;43.546;16.426;2022-09-17T14:59:46;62110.00;;;-146.77;100.00
55410;BME280;41279;43.546;16.426;2022-09-17T15:04:57;60906.03;;;-146.77;100.00